Walworth, NY (14568)

5:28 PM EDT on August 03, 2015 (GMT -0400)
Walworth/Huddle | | Change Station
CLOSE
Current Station
Personal Weather Station
Location: Walworth, NY
Elevation: 459 ft
Nearby Weather Stations

Elev 459 ft 43.13 °N, 77.27 °W | Updated 25 minutes ago

Mostly Cloudy
Mostly Cloudy
81.5 °F
Feels Like 80 °F
N
0.0
Wind Variable Wind from North
Gusts 0.0 mph

Today
High -- | Low -- °F
--% Chance of Precip.
Yesterday
High -- | Low -- °F
Precip. -- in
6:01 AM 8:28 PM
Waning Gibbous, 84% visible
Pressure 29.73 in
Visibility 10.0 miles
Clouds Few 4900 ft
Heat Index 80 °F
Dew Point 38 °F
Humidity 21%
Rainfall 0.00 in
Snow Depth Not available.
UV 4 out of 12
Pollen 4.80 out of 12
Air Quality Not available.
Flu Activity Not available.
METAR KROC 032054Z COR 25015KT 10SM FEW049 27/15 A2974 RMK AO2 SLP068 T02720150 57004 TCU DSNT N

More Conditions Fewer Conditions

Pressure 29.73 in
Visibility 10.0 miles
Clouds Few 4900 ft
Heat Index 80 °F
Dew Point 38 °F
Humidity 21%
Rainfall 0.00 in
Snow Depth Not available.
UV 4 out of 12
Pollen 4.80 out of 12
Air Quality Not available.
Flu Activity Not available.
METAR KROC 032054Z COR 25015KT 10SM FEW049 27/15 A2974 RMK AO2 SLP068 T02720150 57004 TCU DSNT N

More Conditions Fewer Conditions

10-Day Weather Forecast

×

Almanac

Astronomy

Aug. 03, 2015 Rise Set
Actual Time
Civil Twilight
Nautical Twilight
Astronomical Twilight
Moon
Length of Visible Light
Length of Day
Tomorrow will be .
, % of the Moon is Illuminated

Today's Extremes

State Highs State Lows

Community

WunderPhotos

Upload Photos

1,843,770 photos uploaded!

WunderBlogs® & News

Nearby

Air Quality

  Air Quality AQ Index Pollutant
Not available.

Snow Depth

Station Depth Elevation

Earthquake Activity

City Distance Mag. Time & Date
Minimum magnitude displayed is 2.5.

Coastal Water Temperatures

Place Temperature

Stations

Nearby Weather Stations

Station Location Temp. Windchill Dew Point Humidity Wind Precip. Elev Updated Type